createdAt,value
2019-02-05T00:02:09.993Z,15.20
2019-02-05T00:04:40.997Z,16.03
2019-02-05T00:07:11.949Z,13.97
2019-02-05T00:09:43.231Z,14.03
2019-02-05T00:12:14.118Z,15.40
2019-02-05T00:14:45.103Z,13.30
2019-02-05T00:17:16.100Z,12.97
2019-02-05T00:19:47.196Z,11.93
2019-02-05T00:22:18.086Z,14.07
2019-02-05T00:24:48.988Z,12.20
2019-02-05T00:27:19.855Z,12.63
2019-02-05T00:29:50.952Z,13.10
2019-02-05T00:32:21.850Z,13.37
2019-02-05T00:34:53.011Z,14.27
2019-02-05T00:37:24.137Z,12.57
2019-02-05T00:39:55.207Z,14.53
2019-02-05T00:42:26.105Z,14.80
2019-02-05T00:44:57.295Z,12.77
2019-02-05T00:47:28.076Z,11.50
2019-02-05T00:49:59.085Z,13.13
2019-02-05T00:52:29.873Z,13.73
2019-02-05T00:55:00.885Z,12.80
2019-02-05T00:57:31.828Z,13.77
2019-02-05T01:00:02.878Z,14.13
2019-02-05T01:02:34.631Z,14.40
2019-02-05T01:05:06.152Z,16.17
2019-02-05T01:07:36.921Z,13.23
2019-02-05T01:10:08.523Z,15.20
2019-02-05T01:12:39.426Z,16.73
2019-02-05T01:15:12.609Z,15.23
2019-02-05T01:17:43.556Z,16.67
2019-02-05T01:20:16.680Z,15.40
2019-02-05T01:22:48.382Z,15.03
2019-02-05T01:25:19.861Z,17.03
2019-02-05T01:27:51.491Z,15.20
2019-02-05T01:30:24.412Z,15.13
2019-02-05T01:32:55.437Z,14.60
2019-02-05T01:35:26.518Z,16.60
2019-02-05T01:37:57.521Z,14.57
2019-02-05T01:40:28.823Z,12.80
2019-02-05T01:42:59.686Z,14.43
2019-02-05T01:45:30.674Z,15.50
2019-02-05T01:48:01.382Z,15.57
2019-02-05T01:50:33.056Z,13.70
2019-02-05T01:53:04.749Z,14.57
2019-02-05T01:55:35.770Z,14.37
2019-02-05T01:58:06.545Z,14.30
2019-02-05T02:00:39.655Z,15.30
2019-02-05T02:03:10.586Z,14.50
2019-02-05T02:05:42.291Z,17.13
2019-02-05T02:08:13.482Z,16.77
2019-02-05T02:10:44.624Z,14.43
2019-02-05T02:13:15.478Z,15.10
2019-02-05T02:15:46.754Z,15.30
2019-02-05T02:18:17.454Z,14.87
2019-02-05T02:20:48.433Z,13.20
2019-02-05T02:23:19.228Z,14.27
2019-02-05T02:25:50.495Z,14.30
2019-02-05T02:28:21.393Z,14.03
2019-02-05T02:30:52.300Z,14.30
2019-02-05T02:33:23.174Z,14.53
2019-02-05T02:35:54.178Z,16.03
2019-02-05T02:38:25.064Z,14.67
2019-02-05T02:40:56.045Z,15.60
2019-02-05T02:43:26.936Z,14.90
2019-02-05T02:45:58.249Z,13.00
2019-02-05T02:48:29.116Z,13.07
2019-02-05T02:51:00.130Z,11.70
2019-02-05T02:53:30.989Z,11.57
2019-02-05T02:56:02.002Z,11.47
2019-02-05T02:58:33.185Z,11.43
2019-02-05T03:01:04.274Z,11.80
2019-02-05T03:03:35.153Z,11.67
2019-02-05T03:06:06.262Z,9.70
2019-02-05T03:08:37.124Z,11.10
2019-02-05T03:11:08.269Z,11.60
2019-02-05T03:13:40.244Z,10.70
2019-02-05T03:16:11.320Z,12.43
2019-02-05T03:18:42.232Z,12.00
2019-02-05T03:21:13.122Z,13.10
2019-02-05T03:23:44.008Z,11.83
2019-02-05T03:26:14.885Z,11.73
2019-02-05T03:28:45.975Z,12.23
2019-02-05T03:31:17.083Z,11.83
2019-02-05T03:33:48.253Z,12.30
2019-02-05T03:36:19.340Z,12.43
2019-02-05T03:38:50.252Z,13.90
2019-02-05T03:41:21.249Z,14.00
2019-02-05T03:43:52.531Z,12.70
2019-02-05T03:46:23.946Z,12.67
2019-02-05T03:48:55.217Z,15.57
2019-02-05T03:51:47.260Z,13.07
2019-02-05T03:55:07.963Z,11.03
2019-02-05T03:58:26.210Z,9.87
2019-02-05T04:01:35.159Z,12.13
2019-02-05T04:04:52.779Z,12.53
2019-02-05T04:08:03.869Z,10.77
2019-02-05T04:11:25.759Z,11.83
2019-02-05T04:15:07.691Z,7.63
2019-02-05T04:18:11.131Z,9.13
2019-02-05T04:21:10.398Z,10.67
2019-02-05T04:24:07.806Z,12.57
2019-02-05T04:27:21.289Z,12.50
2019-02-05T04:30:35.760Z,13.17
2019-02-05T04:33:22.781Z,13.43
2019-02-05T04:36:41.421Z,14.90
2019-02-05T04:39:36.617Z,13.13
2019-02-05T04:42:37.161Z,11.10
2019-02-05T04:45:39.984Z,14.00
2019-02-05T04:48:32.491Z,12.90
2019-02-05T04:51:35.482Z,14.53
2019-02-05T04:54:26.025Z,13.33
2019-02-05T04:57:35.320Z,14.10
2019-02-05T05:00:47.657Z,13.10
2019-02-05T05:03:50.222Z,14.03
2019-02-05T05:06:57.398Z,14.40
2019-02-05T05:10:02.139Z,13.80
2019-02-05T05:12:33.133Z,13.20
2019-02-05T05:15:05.404Z,13.87
2019-02-05T05:17:36.332Z,13.93
2019-02-05T05:20:09.265Z,12.30
2019-02-05T05:22:40.273Z,13.50
2019-02-05T05:25:12.174Z,13.30
2019-02-05T05:27:44.290Z,16.53
2019-02-05T05:30:18.441Z,14.27
2019-02-05T05:32:49.531Z,14.80
2019-02-05T05:35:20.434Z,13.10
2019-02-05T05:37:51.899Z,14.17
2019-02-05T05:40:22.721Z,12.87
2019-02-05T05:42:53.608Z,13.57
2019-02-05T05:45:24.396Z,14.87
2019-02-05T05:47:55.362Z,16.03
2019-02-05T05:50:26.277Z,15.37
2019-02-05T05:52:56.838Z,13.17
2019-02-05T05:55:27.845Z,14.13
2019-02-05T05:57:58.767Z,14.40
2019-02-05T06:00:29.804Z,13.47
2019-02-05T06:03:00.706Z,14.17
2019-02-05T06:05:31.907Z,12.40
2019-02-05T06:08:02.821Z,14.87
2019-02-05T06:10:33.826Z,12.43
2019-02-05T06:13:05.105Z,13.97
2019-02-05T06:15:36.176Z,11.30
2019-02-05T06:18:07.238Z,12.93
2019-02-05T06:20:38.445Z,12.63
2019-02-05T06:23:09.582Z,13.27
2019-02-05T06:25:43.032Z,13.63
2019-02-05T06:28:13.820Z,14.57
2019-02-05T06:30:44.981Z,11.87
2019-02-05T06:33:16.221Z,11.67
2019-02-05T06:35:47.109Z,12.60
2019-02-05T06:38:18.086Z,12.63
2019-02-05T06:40:49.217Z,11.00
2019-02-05T06:43:20.235Z,11.67
2019-02-05T06:45:51.446Z,10.50
2019-02-05T06:48:22.555Z,9.97
2019-02-05T06:50:53.543Z,9.63
2019-02-05T06:53:24.640Z,10.43
2019-02-05T06:55:55.523Z,9.90
2019-02-05T06:58:26.413Z,8.60
2019-02-05T07:00:57.704Z,6.70
2019-02-05T07:03:28.716Z,7.87
2019-02-05T07:05:59.599Z,7.07
2019-02-05T07:08:30.467Z,7.03
2019-02-05T07:11:01.392Z,7.03
2019-02-05T07:13:32.364Z,7.97
2019-02-05T07:16:03.731Z,8.93
2019-02-05T07:18:34.537Z,9.83
2019-02-05T07:21:05.541Z,11.53
2019-02-05T07:23:36.528Z,9.03
2019-02-05T07:26:08.309Z,10.93
2019-02-05T07:28:39.215Z,9.87
2019-02-05T07:31:10.301Z,8.80
2019-02-05T07:33:41.209Z,10.20
2019-02-05T07:36:12.212Z,10.27
2019-02-05T07:38:43.072Z,9.53
2019-02-05T07:41:14.258Z,8.30
2019-02-05T07:43:45.151Z,9.33
2019-02-05T07:46:16.401Z,10.27
2019-02-05T07:48:47.338Z,10.77
2019-02-05T07:51:18.416Z,9.17
2019-02-05T07:53:49.417Z,10.37
2019-02-05T07:56:21.138Z,8.63
2019-02-05T07:58:52.008Z,9.00
2019-02-05T08:01:23.261Z,11.53
2019-02-05T08:03:55.121Z,11.23
2019-02-05T08:06:26.731Z,10.80
2019-02-05T08:08:57.509Z,10.70
2019-02-05T08:11:28.389Z,11.37
2019-02-05T08:13:59.603Z,7.93
2019-02-05T08:16:30.614Z,6.50
2019-02-05T08:19:01.563Z,6.70
2019-02-05T08:21:32.610Z,6.53
2019-02-05T08:24:03.658Z,5.97
2019-02-05T08:26:34.828Z,6.50
2019-02-05T08:29:06.360Z,5.07
2019-02-05T08:31:37.352Z,5.60
2019-02-05T08:34:08.344Z,6.90
2019-02-05T08:36:39.307Z,6.00
2019-02-05T08:39:11.120Z,5.20
2019-02-05T08:41:42.148Z,5.83
2019-02-05T08:44:13.358Z,5.93
2019-02-05T08:46:44.222Z,6.20
2019-02-05T08:49:15.190Z,6.00
2019-02-05T08:51:46.170Z,5.27
2019-02-05T08:54:16.980Z,7.63
2019-02-05T08:56:47.949Z,5.27
2019-02-05T08:59:19.269Z,5.90
2019-02-05T09:01:50.649Z,7.00
2019-02-05T09:04:21.532Z,4.87
2019-02-05T09:06:52.429Z,6.13
2019-02-05T09:09:23.323Z,5.30
2019-02-05T09:11:54.316Z,5.40
2019-02-05T09:14:25.496Z,4.63
2019-02-05T09:16:56.649Z,4.60
2019-02-05T09:19:27.494Z,4.70
2019-02-05T09:21:58.384Z,5.80
2019-02-05T09:24:29.250Z,6.07
2019-02-05T09:27:00.258Z,6.60
2019-02-05T09:29:33.395Z,5.37
2019-02-05T09:32:03.775Z,5.40
2019-02-05T09:34:34.558Z,6.37
2019-02-05T09:37:05.684Z,5.43
2019-02-05T09:39:36.729Z,5.77
2019-02-05T09:42:08.043Z,9.60
2019-02-05T09:44:38.899Z,8.53
2019-02-05T09:47:09.872Z,10.47
2019-02-05T09:49:40.702Z,9.80
2019-02-05T09:52:11.691Z,8.20
2019-02-05T09:54:42.574Z,8.70
2019-02-05T09:57:13.859Z,9.27
2019-02-05T09:59:45.770Z,9.80
2019-02-05T10:02:16.813Z,9.10
2019-02-05T10:04:47.755Z,8.77
2019-02-05T10:07:18.681Z,8.07
2019-02-05T10:09:49.642Z,7.57
2019-02-05T10:12:20.645Z,6.10
2019-02-05T10:14:51.297Z,5.13
2019-02-05T10:17:22.575Z,4.53
2019-02-05T10:19:53.472Z,4.50
2019-02-05T10:22:24.502Z,4.07
2019-02-05T10:24:55.455Z,4.40
2019-02-05T10:27:26.426Z,5.00
2019-02-05T10:29:59.581Z,5.00
2019-02-05T10:32:29.874Z,4.90
2019-02-05T10:35:00.662Z,5.07
2019-02-05T10:37:33.074Z,4.87
2019-02-05T10:40:04.358Z,5.07
2019-02-05T10:42:35.379Z,4.80
2019-02-05T10:45:08.222Z,5.70
2019-02-05T10:47:40.531Z,4.90
2019-02-05T10:50:13.249Z,5.97
2019-02-05T10:52:44.556Z,4.80
2019-02-05T10:55:16.715Z,5.70
2019-02-05T10:57:47.971Z,9.00
2019-02-05T11:00:21.012Z,6.60
2019-02-05T11:02:52.114Z,5.90
2019-02-05T11:05:24.616Z,4.90
2019-02-05T11:07:55.598Z,5.50
2019-02-05T11:10:26.492Z,6.47
2019-02-05T11:12:57.406Z,5.83
2019-02-05T11:15:30.389Z,6.53
2019-02-05T11:18:02.430Z,7.37
2019-02-05T11:20:33.523Z,5.63
2019-02-05T11:23:04.934Z,5.83
2019-02-05T11:25:36.950Z,6.00
2019-02-05T11:28:07.940Z,10.30
2019-02-05T11:30:44.106Z,7.30
2019-02-05T11:33:15.451Z,7.03
2019-02-05T11:35:47.360Z,7.57
2019-02-05T11:38:18.621Z,4.40
2019-02-05T11:40:49.547Z,6.90
2019-02-05T11:43:20.683Z,5.97
2019-02-05T11:45:51.631Z,6.57
2019-02-05T11:48:22.914Z,6.03
2019-02-05T11:50:53.791Z,6.90
2019-02-05T11:53:24.915Z,7.60
2019-02-05T11:55:55.995Z,6.93
2019-02-05T11:58:27.742Z,6.80
2019-02-05T12:01:06.640Z,8.87
2019-02-05T12:03:37.649Z,7.53
2019-02-05T12:06:08.660Z,7.83
2019-02-05T12:08:40.027Z,9.47
2019-02-05T12:11:10.947Z,9.03
2019-02-05T12:13:41.837Z,9.40
2019-02-05T12:16:12.722Z,9.40
2019-02-05T12:18:43.491Z,8.10
2019-02-05T12:21:14.379Z,8.60
2019-02-05T12:23:45.384Z,9.20
2019-02-05T12:26:16.377Z,8.63
2019-02-05T12:28:47.268Z,10.20
2019-02-05T12:31:18.148Z,8.70
2019-02-05T12:33:49.262Z,9.77
2019-02-05T12:36:20.111Z,8.90
2019-02-05T12:38:51.118Z,7.50
2019-02-05T12:41:21.906Z,10.20
2019-02-05T12:43:53.292Z,9.13
2019-02-05T12:46:24.173Z,8.10
2019-02-05T12:48:55.258Z,9.43
2019-02-05T12:51:26.148Z,6.93
2019-02-05T12:53:57.164Z,8.47
2019-02-05T12:56:28.327Z,7.80
2019-02-05T12:59:00.074Z,6.93
2019-02-05T13:01:30.930Z,8.87
2019-02-05T13:04:01.927Z,8.57
2019-02-05T13:06:32.828Z,8.10
2019-02-05T13:09:05.359Z,7.30
2019-02-05T13:11:36.635Z,9.00
2019-02-05T13:14:07.819Z,8.70
2019-02-05T13:16:38.821Z,9.80
2019-02-05T13:19:09.824Z,8.50
2019-02-05T13:21:40.713Z,8.27
2019-02-05T13:24:11.966Z,8.13
2019-02-05T13:26:42.896Z,8.23
2019-02-05T13:29:13.772Z,8.67
2019-02-05T13:31:44.651Z,7.87
2019-02-05T13:34:15.762Z,7.60
2019-02-05T13:36:46.735Z,7.43
2019-02-05T13:39:17.725Z,7.47
2019-02-05T13:41:48.610Z,7.37
2019-02-05T13:44:19.623Z,7.67
2019-02-05T13:46:52.314Z,8.50
2019-02-05T13:49:22.700Z,7.67
2019-02-05T13:51:53.360Z,7.77
2019-02-05T13:54:24.030Z,8.67
2019-02-05T13:56:54.862Z,7.17
2019-02-05T13:59:25.857Z,6.87
2019-02-05T14:01:56.395Z,8.33
2019-02-05T14:04:27.011Z,7.00
2019-02-05T14:06:57.700Z,6.87
2019-02-05T14:09:28.635Z,7.33
2019-02-05T14:11:59.472Z,8.27
2019-02-05T14:14:30.733Z,7.40
2019-02-05T14:17:01.772Z,7.63
2019-02-05T14:19:32.937Z,8.33
2019-02-05T14:22:03.934Z,7.93
2019-02-05T14:24:34.968Z,7.67
2019-02-05T14:27:06.222Z,8.43
2019-02-05T14:29:38.243Z,6.97
2019-02-05T14:32:09.018Z,6.60
2019-02-05T14:34:40.016Z,6.90
2019-02-05T14:37:12.017Z,6.47
2019-02-05T14:39:44.127Z,7.33
2019-02-05T14:42:15.358Z,7.30
2019-02-05T14:44:46.323Z,7.40
2019-02-05T14:47:17.211Z,8.00
2019-02-05T14:49:48.281Z,6.80
2019-02-05T14:52:19.217Z,7.80
2019-02-05T14:54:50.177Z,7.93
2019-02-05T14:57:20.987Z,8.37
2019-02-05T14:59:51.995Z,7.93
2019-02-05T15:02:23.054Z,8.37
2019-02-05T15:04:54.514Z,7.10
2019-02-05T15:07:25.620Z,7.03
2019-02-05T15:09:56.590Z,7.67
2019-02-05T15:12:27.440Z,8.07
2019-02-05T15:14:58.431Z,8.00
2019-02-05T15:17:29.318Z,7.07
2019-02-05T15:20:00.341Z,6.97
2019-02-05T15:22:31.489Z,6.50
2019-02-05T15:25:02.395Z,6.37
2019-02-05T15:27:33.569Z,6.70
2019-02-05T15:30:06.091Z,6.10
2019-02-05T15:32:52.429Z,6.53
2019-02-05T15:35:23.757Z,6.20
2019-02-05T15:37:54.622Z,7.27
2019-02-05T15:40:25.718Z,6.70
2019-02-05T15:42:57.646Z,7.00
2019-02-05T15:45:29.060Z,6.63
2019-02-05T15:48:00.040Z,8.87
2019-02-05T15:50:30.915Z,8.20
2019-02-05T15:53:01.796Z,8.00
2019-02-05T15:55:32.862Z,6.60
2019-02-05T15:58:04.506Z,7.93
2019-02-05T16:00:35.594Z,7.87
2019-02-05T16:03:07.332Z,7.20
2019-02-05T16:05:38.391Z,7.67
2019-02-05T16:08:09.374Z,7.57
2019-02-05T16:10:40.804Z,7.77
2019-02-05T16:13:11.655Z,7.87
2019-02-05T16:15:42.564Z,7.93
2019-02-05T16:18:13.435Z,8.93
2019-02-05T16:20:44.443Z,7.80
2019-02-05T16:23:15.328Z,7.83
2019-02-05T16:25:46.322Z,8.47
2019-02-05T16:28:17.399Z,8.20
2019-02-05T16:30:48.385Z,7.77
2019-02-05T16:33:19.163Z,8.30
2019-02-05T16:35:50.316Z,7.60
2019-02-05T16:38:21.502Z,7.90
2019-02-05T16:40:52.788Z,8.23
2019-02-05T16:43:23.655Z,8.77
2019-02-05T16:45:54.839Z,7.73
2019-02-05T16:48:25.731Z,7.67
2019-02-05T16:50:56.977Z,7.80
2019-02-05T16:53:27.934Z,7.97
2019-02-05T16:55:59.158Z,9.10
2019-02-05T16:58:30.088Z,8.43
2019-02-05T17:01:01.848Z,9.93
2019-02-05T17:03:32.814Z,7.73
2019-02-05T17:06:03.887Z,9.53
2019-02-05T17:08:34.889Z,8.53
2019-02-05T17:11:06.010Z,9.70
2019-02-05T17:13:36.870Z,9.77
2019-02-05T17:16:07.902Z,11.07
2019-02-05T17:18:38.745Z,12.17
2019-02-05T17:21:09.743Z,12.67
2019-02-05T17:23:40.626Z,12.70
2019-02-05T17:26:11.607Z,12.80
2019-02-05T17:28:42.482Z,12.40
2019-02-05T17:31:13.677Z,11.10
2019-02-05T17:33:44.580Z,11.77
2019-02-05T17:36:15.660Z,11.10
2019-02-05T17:38:46.540Z,11.70
2019-02-05T17:41:17.532Z,12.30
2019-02-05T17:43:50.478Z,12.10
2019-02-05T17:46:21.616Z,11.43
2019-02-05T17:48:52.575Z,13.87
2019-02-05T17:51:23.576Z,12.20
2019-02-05T17:53:54.728Z,12.97
2019-02-05T17:56:25.681Z,12.47
2019-02-05T17:58:56.732Z,11.37
2019-02-05T18:01:28.108Z,11.93
2019-02-05T18:03:58.664Z,12.53
2019-02-05T18:06:29.371Z,12.90
2019-02-05T18:08:59.922Z,13.40
2019-02-05T18:11:30.536Z,15.07
2019-02-05T18:14:01.097Z,12.90
2019-02-05T18:16:31.780Z,13.77
2019-02-05T18:19:02.333Z,11.60
2019-02-05T18:21:32.932Z,12.43
2019-02-05T18:24:04.072Z,13.67
2019-02-05T18:26:34.964Z,15.37
2019-02-05T18:29:06.373Z,14.77
2019-02-05T18:31:38.196Z,14.80
2019-02-05T18:34:09.142Z,14.27
2019-02-05T18:36:40.464Z,14.10
2019-02-05T18:39:12.146Z,13.40
2019-02-05T18:41:43.264Z,14.20
2019-02-05T18:44:14.143Z,14.30
2019-02-05T18:46:45.147Z,15.07
2019-02-05T18:49:16.100Z,15.27
2019-02-05T18:51:48.130Z,19.63
2019-02-05T18:54:18.823Z,18.70
2019-02-05T18:56:49.792Z,18.33
2019-02-05T18:59:20.672Z,17.77
2019-02-05T19:01:52.384Z,16.37
2019-02-05T19:04:23.378Z,14.47
2019-02-05T19:06:54.380Z,14.67
2019-02-05T19:09:25.170Z,14.10
2019-02-05T19:11:56.155Z,11.70
2019-02-05T19:14:27.025Z,10.90
2019-02-05T19:16:58.318Z,10.40
2019-02-05T19:19:29.230Z,10.03
2019-02-05T19:21:59.835Z,10.83
2019-02-05T19:24:52.256Z,10.40
2019-02-05T19:27:22.863Z,9.77
2019-02-05T19:29:53.748Z,12.47
2019-02-05T19:32:28.157Z,11.60
2019-02-05T19:34:59.025Z,13.73
2019-02-05T19:37:30.100Z,14.13
2019-02-05T19:40:00.985Z,12.30
2019-02-05T19:42:32.903Z,15.73
2019-02-05T19:45:19.192Z,13.87
2019-02-05T19:47:49.913Z,14.03
2019-02-05T19:50:20.612Z,13.70
2019-02-05T19:52:51.786Z,14.10
2019-02-05T19:55:22.920Z,13.67
2019-02-05T19:57:54.220Z,13.63
2019-02-05T20:00:25.117Z,14.40
2019-02-05T20:02:56.374Z,12.33
2019-02-05T20:05:27.269Z,13.87
2019-02-05T20:07:58.382Z,12.60
2019-02-05T20:10:29.431Z,13.20
2019-02-05T20:13:00.348Z,14.60
2019-02-05T20:15:31.228Z,15.27
2019-02-05T20:18:02.316Z,13.97
2019-02-05T20:20:33.697Z,14.33
2019-02-05T20:23:04.977Z,14.50
2019-02-05T20:25:35.907Z,15.20
2019-02-05T20:28:07.125Z,13.50
2019-02-05T20:30:38.238Z,14.90
2019-02-05T20:33:10.396Z,12.07
2019-02-05T20:35:41.377Z,14.47
2019-02-05T20:38:12.374Z,13.37
2019-02-05T20:40:43.593Z,13.70
2019-02-05T20:43:14.674Z,13.60
2019-02-05T20:46:05.644Z,14.20
2019-02-05T20:48:36.481Z,12.87
2019-02-05T20:51:08.048Z,13.03
2019-02-05T20:53:38.973Z,14.40
2019-02-05T20:56:09.984Z,14.77
2019-02-05T20:58:40.976Z,13.70
2019-02-05T21:01:12.043Z,14.20
2019-02-05T21:03:42.829Z,12.77
2019-02-05T21:06:14.076Z,13.10
2019-02-05T21:08:46.607Z,16.03
2019-02-05T21:11:19.157Z,16.87
2019-02-05T21:13:50.269Z,16.00
2019-02-05T21:16:21.310Z,16.17
2019-02-05T21:18:52.263Z,16.80
2019-02-05T21:21:23.242Z,16.00
2019-02-05T21:23:54.232Z,16.53
2019-02-05T21:26:25.128Z,17.67
2019-02-05T21:28:55.898Z,16.37
2019-02-05T21:31:26.942Z,13.70
2019-02-05T21:33:57.907Z,14.30
2019-02-05T21:36:28.893Z,13.37
2019-02-05T21:38:59.861Z,18.30
2019-02-05T21:41:32.298Z,17.83
2019-02-05T21:44:03.273Z,17.67
2019-02-05T21:46:34.188Z,16.83
2019-02-05T21:49:06.053Z,16.80
2019-02-05T21:51:40.938Z,18.40
2019-02-05T21:54:09.706Z,16.57
2019-02-05T21:56:41.601Z,17.07
2019-02-05T21:59:12.504Z,17.47
2019-02-05T22:01:43.515Z,16.50
2019-02-05T22:04:26.427Z,16.60
2019-02-05T22:06:48.116Z,15.03
2019-02-05T22:09:19.128Z,15.77
2019-02-05T22:11:50.250Z,15.60
2019-02-05T22:14:21.209Z,16.73
2019-02-05T22:16:53.462Z,14.80
2019-02-05T22:19:25.930Z,15.33
2019-02-05T22:21:56.838Z,14.30
2019-02-05T22:24:27.706Z,16.57
2019-02-05T22:26:58.620Z,14.70
2019-02-05T22:29:29.497Z,15.00
2019-02-05T22:32:00.595Z,15.97
2019-02-05T22:34:38.783Z,14.43
2019-02-05T22:37:04.124Z,15.53
2019-02-05T22:39:35.393Z,17.07
2019-02-05T22:42:07.388Z,15.20
2019-02-05T22:44:38.198Z,17.10
2019-02-05T22:47:09.231Z,16.33
2019-02-05T22:49:40.452Z,16.27
2019-02-05T22:52:11.592Z,16.93
2019-02-05T22:54:43.381Z,17.90
2019-02-05T22:57:14.278Z,16.97
2019-02-05T22:59:45.457Z,17.33
2019-02-05T23:02:16.556Z,17.50
2019-02-05T23:05:36.188Z,16.90
2019-02-05T23:08:07.823Z,17.87
2019-02-05T23:11:31.319Z,16.60
2019-02-05T23:14:02.214Z,16.50
2019-02-05T23:16:33.079Z,18.03
2019-02-05T23:19:04.541Z,18.60
2019-02-05T23:21:35.489Z,18.30
2019-02-05T23:24:06.583Z,17.80
2019-02-05T23:26:37.455Z,18.87
2019-02-05T23:29:08.495Z,16.93
2019-02-05T23:31:39.447Z,17.80
2019-02-05T23:34:10.445Z,17.67
2019-02-05T23:36:41.614Z,18.83
2019-02-05T23:39:13.713Z,17.07
2019-02-05T23:41:44.627Z,18.80
2019-02-05T23:44:15.690Z,18.90
2019-02-05T23:46:46.512Z,18.70
2019-02-05T23:49:17.978Z,18.90
2019-02-05T23:51:48.902Z,17.20
2019-02-05T23:54:19.792Z,18.07
2019-02-05T23:56:50.657Z,18.13
2019-02-05T23:59:21.657Z,18.07
